Latest Weather Observations for Sydney Airport

IDN60801

Issued at 8:35 am EST Saturday 2 August 2014 (issued every 30 minutes, with the page automatically refreshed every 10 minutes)

About weather observations | Map of weather stations | Latest weather observations for NSW | Other Formats
Station Details ID: 066037 Name: SYDNEY AIRPORT AMO Lat: -33.95 Lon: 151.17 Height: 6.0 m
Data from the previous 72 hours. | See also: Recent months at Sydney Airport
Date/Time
EST
Temp
°C
App
Temp
°C
Dew
Point
Rel
Hum
%
Delta-T
°C
Wind Press
QNH
hPa
Press
MSL
hPa
Rain
since 9 am
mm
Dir
 
Spd
km/h
Gust
km/h
Spd
kts
Gust
kts
02/08:30am 9.7 1.0 -3.0 41 4.7 WSW 33 39 18 21 1024.0 - 0.0
02/08:00am 8.8 0.4 -2.5 45 4.2 WSW 32 39 17 21 1023.3 1023.3 0.0
02/07:30am 8.1 0.9 -2.1 48 3.8 W 26 32 14 17 1022.8 - 0.0
02/07:00am 7.3 0.2 -1.5 53 3.3 W 26 33 14 18 1022.1 1022.1 0.0
02/06:30am 7.4 -0.2 -2.1 51 3.5 W 28 39 15 21 1021.6 - 0.0
02/06:09am 7.7 -0.6 -2.0 50 3.6 WSW 32 50 17 27 1021.2 - 0.0
02/06:00am 7.7 -0.3 -2.3 49 3.7 WSW 30 35 16 19 1021.0 1021.0 0.0
02/05:30am 7.6 -0.8 -2.1 50 3.6 W 32 41 17 22 1020.4 - 0.0
02/05:00am 7.5 1.1 -1.9 51 3.5 W 22 28 12 15 1019.9 1019.9 0.0
02/04:30am 7.9 1.9 -1.7 50 3.6 WSW 20 28 11 15 1019.4 - 0.0
02/04:00am 8.2 1.7 -2.3 47 3.9 W 22 28 12 15 1019.0 1019.0 0.0
02/03:30am 8.3 2.4 -2.1 48 3.9 W 19 28 10 15 1018.6 - 0.0
02/03:00am 8.7 3.5 -2.6 45 4.2 WSW 15 24 8 13 1018.3 1018.3 0.0
02/02:30am 9.0 2.1 -2.5 44 4.3 W 24 32 13 17 1017.8 - 0.0
02/02:00am 9.0 1.8 -2.2 45 4.2 W 26 32 14 17 1017.6 1017.6 0.0
02/01:30am 9.1 1.1 -2.0 45 4.2 W 30 41 16 22 1017.1 - 0.0
02/01:00am 9.2 0.7 -1.5 47 4.1 W 33 44 18 24 1016.9 1016.9 0.0
02/12:30am 9.2 3.3 -1.1 48 4.0 WNW 20 35 11 19 1016.9 - 0.0
02/12:00am 9.4 5.0 0.1 52 3.7 WNW 13 17 7 9 1017.0 1017.0 0.0
 
Date/Time
EST
Temp
°C
App
Temp
°C
Dew
Point
Rel
Hum
%
Delta-T
°C
Wind Press
QNH
hPa
Press
MSL
hPa
Rain
since 9 am
mm
Dir
 
Spd
km/h
Gust
km/h
Spd
kts
Gust
kts
01/11:30pm 9.6 4.1 0.7 54 3.6 W 19 24 10 13 1016.6 - 0.0
01/11:00pm 10.1 5.3 0.5 51 3.9 NW 15 20 8 11 1016.2 1016.2 0.0
01/10:30pm 9.2 4.1 0.5 54 3.5 WNW 17 22 9 12 1016.1 - 0.0
01/10:00pm 9.7 3.1 -0.1 50 3.9 WNW 24 32 13 17 1016.1 1016.1 0.0
01/09:30pm 9.7 4.5 0.3 52 3.8 W 17 20 9 11 1015.9 - 0.0
01/09:00pm 9.4 3.0 0.8 55 3.5 NW 24 32 13 17 1015.4 1015.4 0.0
01/08:30pm 9.9 2.7 0.9 53 3.7 NW 28 35 15 19 1015.1 - 0.0
01/08:04pm 9.9 1.3 0.5 52 3.8 WNW 35 54 19 29 1014.4 - 0.0
01/08:00pm 10.0 -0.1 0.4 51 3.9 WNW 43 56 23 30 1014.4 1014.4 0.0
01/07:30pm 11.0 -0.6 -0.8 44 4.7 WNW 50 70 27 38 1014.2 - 0.0
01/07:03pm 12.1 -1.5 -3.0 35 5.8 WNW 59 80 32 43 1012.9 - 0.0
01/07:00pm 12.2 -1.0 -3.3 34 5.9 WNW 57 70 31 38 1012.9 1012.9 0.0
01/06:30pm 12.9 0.8 -4.5 29 6.5 WNW 50 67 27 36 1013.1 - 0.0
01/06:15pm 13.4 -0.9 -5.7 26 7.0 WNW 61 70 33 38 1012.7 - 0.0
01/06:00pm 14.0 3.4 -6.9 23 7.5 WNW 41 59 22 32 1012.2 1012.2 0.0
01/05:37pm 14.2 4.4 -6.9 22 7.6 WNW 37 56 20 30 1011.6 - 0.0
01/05:30pm 14.4 4.9 -8.0 20 7.9 WNW 35 44 19 24 1011.4 - 0.0
01/05:00pm 15.0 5.1 -8.2 19 8.2 W 37 50 20 27 1010.7 1010.7 0.0
01/04:30pm 15.5 6.9 -8.6 18 8.5 W 30 44 16 24 1010.2 - 0.0
01/04:00pm 16.2 6.6 -8.5 17 8.8 W 35 52 19 28 1009.7 1009.7 0.0
01/03:30pm 16.5 5.6 -10.8 14 9.3 W 41 56 22 30 1009.3 - 0.0
01/03:12pm 16.4 6.3 -10.4 15 9.2 W 37 56 20 30 1009.1 - 0.0
01/03:00pm 16.7 6.3 -8.8 16 9.1 W 39 50 21 27 1009.0 1009.0 0.0
01/02:30pm 16.6 4.8 -10.4 15 9.3 W 46 67 25 36 1008.7 - 0.0
01/02:04pm 17.5 6.7 -9.6 15 9.6 W 41 59 22 32 1008.3 - 0.0
01/02:00pm 16.9 5.8 -8.3 17 9.1 W 43 59 23 32 1008.3 1008.3 0.0
01/01:43pm 17.5 8.8 -5.1 21 8.8 W 32 50 17 27 1008.1 - 0.0
01/01:30pm 16.6 7.7 -5.3 22 8.4 W 33 41 18 22 1007.9 - 0.0
01/01:02pm 16.3 7.6 -3.6 25 7.9 W 33 52 18 28 1007.9 - 0.0
01/01:00pm 17.0 8.2 -3.9 23 8.3 W 33 48 18 26 1007.9 1007.9 0.0
01/12:30pm 17.4 8.5 -2.2 26 8.1 W 35 48 19 26 1007.7 - 0.0
01/12:00pm 17.0 6.9 -2.6 26 8.0 W 41 50 22 27 1007.7 1007.7 0.0
01/11:30am 18.7 11.2 1.0 30 7.9 WSW 30 41 16 22 1007.6 - 0.0
01/11:00am 18.6 11.0 -2.2 24 8.7 W 28 48 15 26 1007.3 1007.3 0.0
01/10:49am 18.9 10.7 -1.2 25 8.6 WNW 32 52 17 28 1007.3 - 0.0
01/10:30am 19.1 12.0 1.4 30 8.0 NW 28 37 15 20 1007.3 - 0.0
01/10:00am 18.8 12.9 1.9 32 7.7 WNW 22 30 12 16 1007.5 1007.5 0.0
01/09:30am 18.5 12.6 1.7 32 7.6 WNW 22 28 12 15 1007.4 - 0.0
01/09:00am 18.2 13.1 0.5 30 7.8 W 17 22 9 12 1007.3 1007.3 0.0
01/08:30am 17.3 12.5 -0.1 30 7.5 W 15 17 8 9 1007.3 - 0.0
01/08:00am 16.4 10.8 0.1 33 7.0 W 19 26 10 14 1006.9 1006.9 0.0
01/07:30am 16.1 8.5 -2.3 28 7.5 W 28 35 15 19 1006.4 - 0.0
01/07:00am 15.9 9.7 -3.1 27 7.6 WNW 20 33 11 18 1005.8 1005.8 0.0
01/06:30am 17.6 10.0 -5.3 20 8.9 WNW 26 33 14 18 1005.2 - 0.0
01/06:22am 18.0 9.9 -6.4 18 9.3 NW 28 35 15 19 1005.0 - 0.0
01/06:00am 17.2 12.1 -5.3 21 8.7 N 13 15 7 8 1004.6 1004.6 0.0
01/05:30am 16.8 12.2 -4.3 23 8.3 WNW 11 17 6 9 1004.4 - 0.0
01/05:00am 16.7 10.9 -4.9 22 8.4 N 17 19 9 10 1004.1 1004.1 0.0
01/04:30am 17.1 10.6 -6.0 20 8.8 N 20 26 11 14 1003.4 - 0.0
01/04:00am 16.7 9.5 -5.4 21 8.5 N 24 30 13 16 1003.6 1003.6 0.0
01/03:30am 16.7 9.5 -5.4 21 8.4 N 24 32 13 17 1003.9 - 0.0
01/03:00am 16.2 9.8 -4.7 23 8.1 N 20 28 11 15 1004.2 1004.2 0.0
01/02:30am 16.9 9.4 -5.0 22 8.5 N 26 30 14 16 1004.5 - 0.0
01/02:00am 17.7 8.9 -6.1 19 9.1 N 32 41 17 22 1004.8 1004.8 0.0
01/01:30am 17.7 9.0 -5.6 20 9.0 N 32 37 17 20 1005.1 - 0.0
01/01:00am 17.7 9.4 -5.1 20 8.9 N 30 37 16 20 1005.3 1005.3 0.0
01/12:30am 18.0 10.5 -4.8 21 8.9 N 26 30 14 16 1005.5 - 0.0
01/12:00am 18.0 10.6 -3.9 22 8.8 N 26 32 14 17 1005.8 1005.8 0.0
 
Date/Time
EST
Temp
°C
App
Temp
°C
Dew
Point
Rel
Hum
%
Delta-T
°C
Wind Press
QNH
hPa
Press
MSL
hPa
Rain
since 9 am
mm
Dir
 
Spd
km/h
Gust
km/h
Spd
kts
Gust
kts
31/11:30pm 18.1 11.0 -4.1 22 8.9 N 24 32 13 17 1005.9 - 0.0
31/11:00pm 18.8 11.8 -3.9 21 9.2 N 24 33 13 18 1006.0 1006.0 0.0
31/10:30pm 18.8 11.4 -3.9 21 9.2 N 26 32 14 17 1006.1 - 0.0
31/10:00pm 19.3 11.8 -4.7 19 9.6 N 26 33 14 18 1006.3 1006.3 0.0
31/09:30pm 19.7 12.7 -3.7 20 9.6 N 24 32 13 17 1006.6 - 0.0
31/09:00pm 19.9 12.2 -3.3 20 9.6 N 28 35 15 19 1006.7 1006.7 0.0
31/08:30pm 20.4 12.6 -3.5 19 9.9 N 28 33 15 18 1006.8 - 0.0
31/08:00pm 20.9 12.6 -5.2 17 10.5 N 30 37 16 20 1006.5 1006.5 0.0
31/07:30pm 21.1 12.3 -5.7 16 10.7 N 32 41 17 22 1006.5 - 0.0
31/07:00pm 21.5 13.1 -5.7 15 10.9 N 30 37 16 20 1006.5 1006.5 0.0
31/06:30pm 22.0 13.3 -5.3 15 11.0 N 32 41 17 22 1006.2 - 0.0
31/06:00pm 22.6 14.3 -4.8 15 11.3 N 30 35 16 19 1006.2 1006.2 0.0
31/05:30pm 23.1 13.5 -5.0 15 11.6 NNW 37 50 20 27 1006.2 - 0.0
31/05:10pm 23.4 14.1 -5.2 14 11.8 NNW 35 54 19 29 1006.2 - 0.0
31/05:00pm 23.6 13.2 -5.2 14 11.9 NNW 41 52 22 28 1006.2 1006.2 0.0
31/04:30pm 24.0 14.8 -4.6 14 12.0 NNW 35 50 19 27 1006.2 - 0.0
31/04:00pm 24.5 14.7 -3.2 15 12.0 NNW 39 54 21 29 1006.4 1006.4 0.0
31/03:30pm 25.2 15.4 -2.9 15 12.3 NNW 39 54 21 29 1006.5 - 0.0
31/03:00pm 25.3 15.6 -2.6 15 12.3 NNW 39 57 21 31 1006.7 1006.7 0.0
31/02:30pm 25.3 14.8 -2.6 15 12.3 NNW 43 54 23 29 1007.0 - 0.0
31/02:00pm 24.9 14.4 -2.3 16 12.0 N 43 56 23 30 1007.4 1007.4 0.0
31/01:30pm 24.6 14.2 -2.1 17 11.8 NNW 43 56 23 30 1007.9 - 0.0
31/01:00pm 24.8 15.9 -2.1 17 11.9 NNW 35 54 19 29 1008.5 1008.5 0.0
31/12:34pm 24.7 16.4 -1.4 17 11.7 NNW 32 50 17 27 1009.2 - 0.0
31/12:30pm 24.6 16.4 -1.2 18 11.6 NNW 32 46 17 25 1009.2 - 0.0
31/12:00pm 24.3 16.4 0.9 21 10.9 NNW 32 39 17 21 1010.4 1010.4 0.0
31/11:30am 22.8 14.2 0.1 22 10.3 NNW 35 48 19 26 1011.3 - 0.0
31/11:00am 22.5 14.5 0.2 22 10.1 N 32 41 17 22 1012.1 1012.1 0.0
31/10:30am 22.4 14.5 0.8 24 9.9 NNW 32 41 17 22 1012.8 - 0.0
31/10:00am 21.2 13.1 1.3 26 9.1 NNW 33 39 18 21 1013.2 1013.2 0.0
31/09:30am 20.3 13.2 1.4 28 8.6 N 28 35 15 19 1013.5 - 0.0
31/09:00am 19.1 11.8 2.3 32 7.7 N 30 37 16 20 1013.8 1013.8 0.0
31/08:30am 18.3 12.8 3.8 38 6.8 N 22 30 12 16 1014.0 - 0.0
31/08:00am 17.2 12.2 3.6 40 6.3 N 19 26 10 14 1014.1 1014.1 0.0
31/07:30am 15.9 10.8 4.0 45 5.5 N 20 26 11 14 1014.2 - 0.0
31/07:00am 15.1 10.0 4.3 48 5.0 N 20 24 11 13 1014.2 1014.2 0.0
31/06:30am 14.3 9.9 4.8 53 4.4 N 17 19 9 10 1014.3 - 0.0
31/06:00am 14.6 11.7 4.7 51 4.6 NNE 9 13 5 7 1014.2 1014.2 0.0
31/05:30am 13.9 9.9 5.1 55 4.1 N 15 17 8 9 1014.0 - 0.0
31/05:00am 14.4 9.5 5.0 53 4.4 N 20 20 11 11 1014.0 1014.0 0.0
31/04:30am 14.5 10.2 5.4 54 4.3 N 17 20 9 11 1014.1 - 0.0
31/04:00am 14.1 9.4 5.9 57 3.9 N 20 26 11 14 1014.2 1014.2 0.0
31/03:30am 13.5 8.9 6.4 62 3.4 N 20 24 11 13 1014.3 - 0.0
31/03:00am 13.8 9.4 6.5 61 3.5 N 19 22 10 12 1014.4 1014.4 0.0
31/02:30am 14.4 10.0 6.5 59 3.8 N 19 24 10 13 1014.7 - 0.0
31/02:00am 15.3 9.9 6.4 55 4.3 N 24 28 13 15 1015.0 1015.0 0.0
31/01:30am 14.9 10.0 6.7 58 4.0 N 22 26 12 14 1015.4 - 0.0
31/01:00am 14.9 10.0 6.7 58 4.0 N 22 26 12 14 1015.7 1015.7 0.0
31/12:30am 15.8 10.8 6.3 53 4.6 N 22 24 12 13 1016.0 - 0.0
31/12:00am 16.2 11.5 6.1 51 4.9 N 20 26 11 14 1016.2 1016.2 0.0
 
Date/Time
EST
Temp
°C
App
Temp
°C
Dew
Point
Rel
Hum
%
Delta-T
°C
Wind Press
QNH
hPa
Press
MSL
hPa
Rain
since 9 am
mm
Dir
 
Spd
km/h
Gust
km/h
Spd
kts
Gust
kts
30/11:30pm 16.0 11.9 6.1 52 4.8 N 17 19 9 10 1016.6 - 0.0
30/11:00pm 16.0 11.9 6.1 52 4.8 N 17 19 9 10 1016.9 1016.9 0.0
30/10:30pm 17.1 13.0 6.0 48 5.4 NNW 17 20 9 11 1017.1 - 0.0
30/10:00pm 17.3 13.1 5.7 46 5.6 NNW 17 24 9 13 1017.1 1017.1 0.0
30/09:30pm 17.7 13.5 5.5 44 5.9 N 17 22 9 12 1017.1 - 0.0
30/09:00pm 17.9 13.6 5.2 43 6.1 NNW 17 19 9 10 1017.2 1017.2 0.0
30/08:30pm 18.7 14.3 5.0 40 6.6 NW 17 20 9 11 1017.3 - 0.0
30/08:00pm 18.8 14.5 5.2 40 6.6 NW 17 22 9 12 1017.4 1017.4 0.0
30/07:30pm 18.7 15.5 5.3 41 6.5 W 11 13 6 7 1017.4 - 0.0
30/07:00pm 18.1 14.7 5.8 44 6.0 WSW 13 17 7 9 1017.1 1017.1 0.0
30/06:30pm 19.6 15.0 5.5 39 6.9 WNW 19 26 10 14 1016.8 - 0.0
30/06:00pm 20.8 15.5 5.1 35 7.7 NW 22 30 12 16 1016.2 1016.2 0.0
30/05:30pm 21.4 15.3 4.9 34 8.1 NW 26 32 14 17 1015.7 - 0.0
30/05:00pm 21.9 16.0 3.9 30 8.7 WNW 24 32 13 17 1015.2 1015.2 0.0
30/04:30pm 22.5 15.7 3.0 28 9.3 WNW 28 35 15 19 1014.8 - 0.0
30/04:00pm 23.9 18.3 3.6 26 9.9 WNW 22 32 12 17 1014.5 1014.5 0.0
30/03:30pm 23.5 16.7 2.9 26 9.9 W 28 39 15 21 1014.4 - 0.0
30/03:00pm 24.2 18.2 3.2 25 10.2 WNW 24 33 13 18 1014.4 1014.4 0.0
30/02:30pm 23.6 16.1 3.4 26 9.8 WNW 32 41 17 22 1014.3 - 0.0
30/02:00pm 23.9 16.6 2.6 25 10.2 WNW 30 39 16 21 1014.2 1014.2 0.0
30/01:30pm 24.5 18.6 3.7 26 10.2 NW 24 33 13 18 1014.4 - 0.0
30/01:00pm 22.8 18.6 5.7 33 8.6 W 17 26 9 14 1014.7 1014.7 0.0
30/12:30pm 22.1 17.2 4.9 32 8.5 W 20 32 11 17 1015.4 - 0.0
30/12:00pm 22.6 17.6 4.8 31 8.8 WNW 20 28 11 15 1015.9 1015.9 0.0
30/11:30am 22.8 17.4 4.5 30 9.0 W 22 35 12 19 1016.4 - 0.0
30/11:00am 21.8 16.3 4.0 31 8.6 W 22 30 12 16 1017.1 1017.1 0.0
30/10:30am 21.3 15.4 3.8 31 8.4 WNW 24 35 13 19 1017.2 - 0.0
30/10:00am 20.9 15.7 3.4 31 8.3 NW 20 30 11 16 1017.4 1017.4 0.0
30/09:30am 19.9 16.8 3.6 34 7.7 E 9 13 5 7 1017.7 - 0.0
30/09:00am 19.1 16.5 3.3 35 7.4 W 6 11 3 6 1017.8 1017.8 0.0

Other Formats:

Comma delimited format used in spreadsheet applications
http://www.bom.gov.au/fwo/IDN60801/IDN60801.94767.axf

JavaScript Object Notation format (JSON) in row-major order
http://www.bom.gov.au/fwo/IDN60801/IDN60801.94767.json